createdAt,value
2023-05-14T00:01:17.100Z,100669.00
2023-05-14T00:03:44.115Z,100654.00
2023-05-14T00:06:11.189Z,100656.66
2023-05-14T00:08:37.951Z,100655.69
2023-05-14T00:11:04.907Z,100650.34
2023-05-14T00:13:31.641Z,100660.81
2023-05-14T00:15:58.464Z,100646.00
2023-05-14T00:18:25.270Z,100638.00
2023-05-14T00:20:54.961Z,100625.03
2023-05-14T00:23:22.704Z,100635.34
2023-05-14T00:25:49.989Z,100635.03
2023-05-14T00:28:16.674Z,100638.53
2023-05-14T00:30:43.398Z,100625.38
2023-05-14T00:33:10.269Z,100628.03
2023-05-14T00:35:37.218Z,100623.84
2023-05-14T00:38:04.248Z,100629.34
2023-05-14T00:40:31.064Z,100613.16
2023-05-14T00:42:57.868Z,100619.19
2023-05-14T00:45:25.761Z,100605.00
2023-05-14T00:47:53.596Z,100607.38
2023-05-14T00:50:21.504Z,100611.31
2023-05-14T00:52:48.935Z,100606.84
2023-05-14T00:55:16.779Z,100608.66
2023-05-14T00:57:44.222Z,100608.66
2023-05-14T01:00:11.349Z,100608.84
2023-05-14T01:02:38.299Z,100610.53
2023-05-14T01:05:05.823Z,100605.88
2023-05-14T01:07:49.387Z,100603.69
2023-05-14T01:10:32.700Z,100605.38
2023-05-14T01:13:15.074Z,100595.41
2023-05-14T01:15:45.019Z,100603.41
2023-05-14T01:18:13.814Z,100608.38
2023-05-14T01:20:40.729Z,100606.38
2023-05-14T01:23:08.224Z,100605.56
2023-05-14T01:25:35.455Z,100610.09
2023-05-14T01:28:02.558Z,100598.72
2023-05-14T01:31:06.239Z,100593.91
2023-05-14T01:33:35.083Z,100601.06
2023-05-14T01:36:02.137Z,100589.25
2023-05-14T01:38:31.812Z,100582.09
2023-05-14T01:41:00.406Z,100584.59
2023-05-14T01:43:27.480Z,100585.06
2023-05-14T01:45:55.616Z,100592.75
2023-05-14T01:48:22.640Z,100588.22
2023-05-14T01:50:49.449Z,100586.41
2023-05-14T01:53:16.412Z,100584.22
2023-05-14T01:55:43.165Z,100575.69
2023-05-14T01:58:10.123Z,100576.41
2023-05-14T02:00:36.850Z,100583.69
2023-05-14T02:03:03.864Z,100570.75
2023-05-14T02:05:30.991Z,100586.91
2023-05-14T02:07:57.853Z,100574.91
2023-05-14T02:10:24.846Z,100575.09
2023-05-14T02:12:51.860Z,100567.25
2023-05-14T02:15:18.806Z,100559.72
2023-05-14T02:17:45.755Z,100562.75
2023-05-14T02:20:13.146Z,100569.75
2023-05-14T02:22:42.384Z,100557.91
2023-05-14T02:25:09.759Z,100558.22
2023-05-14T02:27:36.567Z,100560.75
2023-05-14T02:30:04.620Z,100564.09
2023-05-14T02:32:31.464Z,100553.94
2023-05-14T02:34:58.390Z,100559.59
2023-05-14T02:37:25.202Z,100548.09
2023-05-14T02:39:52.371Z,100549.44
2023-05-14T02:42:19.405Z,100542.94
2023-05-14T02:44:46.610Z,100546.44
2023-05-14T02:47:13.402Z,100530.47
2023-05-14T02:49:40.452Z,100538.59
2023-05-14T02:52:07.417Z,100540.28
2023-05-14T02:54:34.466Z,100536.97
2023-05-14T02:57:01.258Z,100542.31
2023-05-14T02:59:28.011Z,100538.13
2023-05-14T03:01:55.203Z,100540.13
2023-05-14T03:04:22.460Z,100530.97
2023-05-14T03:06:49.426Z,100513.19
2023-05-14T03:09:16.288Z,100521.78
2023-05-14T03:11:43.156Z,100522.66
2023-05-14T03:14:09.966Z,100520.13
2023-05-14T03:16:36.861Z,100531.50
2023-05-14T03:19:04.110Z,100523.13
2023-05-14T03:21:31.871Z,100517.00
2023-05-14T03:23:58.754Z,100517.63
2023-05-14T03:26:25.493Z,100522.16
2023-05-14T03:28:52.975Z,100513.81
2023-05-14T03:31:19.749Z,100517.00
2023-05-14T03:33:46.903Z,100517.81
2023-05-14T03:36:13.681Z,100502.69
2023-05-14T03:38:40.496Z,100516.13
2023-05-14T03:41:07.234Z,100508.69
2023-05-14T03:43:33.994Z,100519.69
2023-05-14T03:46:01.074Z,100511.69
2023-05-14T03:48:28.007Z,100519.84
2023-05-14T03:50:55.058Z,100532.69
2023-05-14T03:53:21.782Z,100516.41
2023-05-14T03:55:48.506Z,100522.03
2023-05-14T03:58:17.432Z,100519.19
2023-05-14T04:00:44.404Z,100517.22
2023-05-14T04:03:11.972Z,100520.38
2023-05-14T04:05:38.899Z,100522.34
2023-05-14T04:08:06.254Z,100519.34
2023-05-14T04:10:33.108Z,100515.88
2023-05-14T04:13:00.596Z,100520.38
2023-05-14T04:15:31.730Z,100511.72
2023-05-14T04:17:58.864Z,100519.88
2023-05-14T04:20:25.946Z,100515.53
2023-05-14T04:22:54.257Z,100499.56
2023-05-14T04:25:21.014Z,100512.53
2023-05-14T04:27:47.746Z,100506.53
2023-05-14T04:30:15.009Z,100518.19
2023-05-14T04:32:41.873Z,100507.88
2023-05-14T04:35:12.930Z,100499.25
2023-05-14T04:37:40.517Z,100503.88
2023-05-14T04:40:11.159Z,100508.69
2023-05-14T04:42:38.776Z,100501.22
2023-05-14T04:45:06.813Z,100509.56
2023-05-14T04:47:33.800Z,100504.72
2023-05-14T04:50:00.605Z,100501.72
2023-05-14T04:52:27.461Z,100501.38
2023-05-14T04:54:54.467Z,100493.03
2023-05-14T04:57:21.210Z,100488.53
2023-05-14T04:59:47.947Z,100490.38
2023-05-14T05:02:14.671Z,100490.91
2023-05-14T05:04:41.474Z,100494.56
2023-05-14T05:07:08.245Z,100484.06
2023-05-14T05:09:35.224Z,100486.03
2023-05-14T05:12:02.045Z,100487.72
2023-05-14T05:14:28.782Z,100487.22
2023-05-14T05:16:55.494Z,100484.72
2023-05-14T05:19:29.127Z,100477.91
2023-05-14T05:21:59.383Z,100468.25
2023-05-14T05:24:26.193Z,100473.09
2023-05-14T05:26:54.016Z,100471.28
2023-05-14T05:29:20.690Z,100466.59
2023-05-14T05:31:47.725Z,100462.28
2023-05-14T05:34:14.554Z,100449.97
2023-05-14T05:36:41.423Z,100467.56
2023-05-14T05:39:08.134Z,100466.41
2023-05-14T05:41:34.886Z,100470.41
2023-05-14T05:44:05.025Z,100455.28
2023-05-14T05:46:31.847Z,100457.41
2023-05-14T05:48:58.552Z,100454.59
2023-05-14T05:51:28.239Z,100447.94
2023-05-14T05:53:55.086Z,100452.25
2023-05-14T05:56:22.138Z,100454.59
2023-05-14T05:58:49.014Z,100441.59
2023-05-14T06:01:15.696Z,100443.28
2023-05-14T06:03:42.440Z,100439.94
2023-05-14T06:06:09.207Z,100443.28
2023-05-14T06:08:36.048Z,100444.44
2023-05-14T06:11:02.807Z,100444.75
2023-05-14T06:13:29.554Z,100434.56
2023-05-14T06:15:56.283Z,100426.44
2023-05-14T06:18:22.974Z,100423.63
2023-05-14T06:20:49.701Z,100438.41
2023-05-14T06:23:16.470Z,100438.25
2023-05-14T06:25:43.231Z,100441.25
2023-05-14T06:28:09.915Z,100434.94
2023-05-14T06:30:36.601Z,100414.44
2023-05-14T06:33:03.560Z,100415.63
2023-05-14T06:35:30.281Z,100424.28
2023-05-14T06:37:57.060Z,100431.28
2023-05-14T06:40:23.931Z,100430.78
2023-05-14T06:42:50.816Z,100418.28
2023-05-14T06:45:17.643Z,100417.78
2023-05-14T06:47:44.509Z,100406.97
2023-05-14T06:50:11.292Z,100397.78
2023-05-14T06:52:38.336Z,100410.59
2023-05-14T06:55:05.401Z,100399.44
2023-05-14T06:57:32.164Z,100404.44
2023-05-14T06:59:58.834Z,100405.25
2023-05-14T07:02:25.613Z,100395.09
2023-05-14T07:04:52.368Z,100391.56
2023-05-14T07:07:21.218Z,100382.91
2023-05-14T07:09:48.291Z,100377.06
2023-05-14T07:12:15.107Z,100361.84
2023-05-14T07:14:41.853Z,100368.22
2023-05-14T07:17:08.591Z,100363.72
2023-05-14T07:19:35.289Z,100357.25
2023-05-14T07:22:02.071Z,100358.41
2023-05-14T07:24:28.825Z,100358.59
2023-05-14T07:26:57.300Z,100361.28
2023-05-14T07:29:25.511Z,100366.63
2023-05-14T07:31:52.478Z,100366.00
2023-05-14T07:34:19.600Z,100362.00
2023-05-14T07:36:46.844Z,100355.19
2023-05-14T07:39:13.624Z,100364.00
2023-05-14T07:41:40.407Z,100364.00
2023-05-14T07:44:07.264Z,100371.00
2023-05-14T07:46:34.179Z,100361.16
2023-05-14T07:49:00.891Z,100361.69
2023-05-14T07:51:28.579Z,100353.34
2023-05-14T07:53:56.043Z,100362.31
2023-05-14T07:56:23.074Z,100368.50
2023-05-14T07:58:51.023Z,100360.88
2023-05-14T08:01:18.116Z,100358.03
2023-05-14T08:03:45.127Z,100354.16
2023-05-14T08:06:11.994Z,100343.69
2023-05-14T08:08:38.704Z,100343.00
2023-05-14T08:11:06.209Z,100342.16
2023-05-14T08:13:32.917Z,100337.03
2023-05-14T08:15:59.680Z,100353.69
2023-05-14T08:18:26.452Z,100340.91
2023-05-14T08:20:53.237Z,100335.84
2023-05-14T08:23:20.808Z,100325.03
2023-05-14T08:25:47.537Z,100325.38
2023-05-14T08:28:14.190Z,100308.03
2023-05-14T08:30:40.965Z,100307.41
2023-05-14T08:33:07.746Z,100306.69
2023-05-14T08:35:34.546Z,100311.84
2023-05-14T08:38:01.324Z,100319.16
2023-05-14T08:40:28.473Z,100323.94
2023-05-14T08:42:57.052Z,100313.59
2023-05-14T08:45:31.662Z,100308.25
2023-05-14T08:47:59.456Z,100298.94
2023-05-14T08:50:27.580Z,100303.94
2023-05-14T08:52:54.546Z,100287.09
2023-05-14T08:55:21.807Z,100286.56
2023-05-14T08:57:49.090Z,100282.25
2023-05-14T09:00:16.087Z,100272.94
2023-05-14T09:02:44.495Z,100275.47
2023-05-14T09:05:11.395Z,100283.81
2023-05-14T09:07:38.815Z,100284.38
2023-05-14T09:10:06.272Z,100269.56
2023-05-14T09:12:33.015Z,100291.50
2023-05-14T09:14:59.651Z,100281.69
2023-05-14T09:17:29.690Z,100261.91
2023-05-14T09:19:56.563Z,100259.06
2023-05-14T09:22:23.359Z,100245.94
2023-05-14T09:25:07.454Z,100245.75
2023-05-14T09:27:35.313Z,100240.25
2023-05-14T09:30:09.774Z,100226.97
2023-05-14T09:32:44.067Z,100245.25
2023-05-14T09:35:19.265Z,100248.41
2023-05-14T09:37:51.148Z,100274.06
2023-05-14T09:40:20.557Z,100275.41
2023-05-14T09:42:49.218Z,100275.25
2023-05-14T09:45:16.962Z,100275.88
2023-05-14T09:47:45.008Z,100260.25
2023-05-14T09:50:13.322Z,100266.34
2023-05-14T09:52:40.295Z,100270.69
2023-05-14T09:55:08.052Z,100253.91
2023-05-14T09:57:35.722Z,100262.03
2023-05-14T10:00:02.613Z,100259.47
2023-05-14T10:02:41.360Z,100243.03
2023-05-14T10:05:08.985Z,100230.06
2023-05-14T10:07:47.702Z,100227.91
2023-05-14T10:10:18.757Z,100243.84
2023-05-14T10:12:52.404Z,100237.34
2023-05-14T10:15:37.048Z,100238.69
2023-05-14T10:18:10.472Z,100227.56
2023-05-14T10:20:40.093Z,100235.41
2023-05-14T10:23:07.803Z,100230.41
2023-05-14T10:25:36.599Z,100240.72
2023-05-14T10:28:06.050Z,100225.25
2023-05-14T10:30:33.045Z,100234.91
2023-05-14T10:33:11.976Z,100231.25
2023-05-14T10:35:52.501Z,100225.72
2023-05-14T10:38:23.284Z,100219.41
2023-05-14T10:40:51.595Z,100218.38
2023-05-14T10:43:20.354Z,100220.53
2023-05-14T10:45:47.613Z,100211.56
2023-05-14T10:48:14.630Z,100215.06
2023-05-14T10:50:42.111Z,100221.59
2023-05-14T10:53:13.429Z,100207.53
2023-05-14T10:55:40.247Z,100212.88
2023-05-14T10:58:08.075Z,100212.03
2023-05-14T11:00:35.734Z,100217.63
2023-05-14T11:03:05.159Z,100210.25
2023-05-14T11:05:33.033Z,100203.47
2023-05-14T11:08:02.290Z,100203.34
2023-05-14T11:10:32.311Z,100199.00
2023-05-14T11:12:59.296Z,100208.50
2023-05-14T11:15:27.039Z,100192.56
2023-05-14T11:17:54.399Z,100206.47
2023-05-14T11:20:21.946Z,100217.31
2023-05-14T11:22:51.723Z,100193.06
2023-05-14T11:25:18.998Z,100185.91
2023-05-14T11:27:47.535Z,100196.84
2023-05-14T11:30:19.279Z,100188.06
2023-05-14T11:32:48.932Z,100186.38
2023-05-14T11:35:17.009Z,100178.50
2023-05-14T11:37:49.497Z,100170.81
2023-05-14T11:40:19.325Z,100179.13
2023-05-14T11:42:46.185Z,100177.09
2023-05-14T11:45:14.421Z,100168.47
2023-05-14T11:47:42.793Z,100157.50
2023-05-14T11:50:10.072Z,100166.03
2023-05-14T11:52:41.643Z,100154.09
2023-05-14T11:55:13.075Z,100151.06
2023-05-14T11:57:41.044Z,100147.03
2023-05-14T12:00:16.972Z,100148.16
2023-05-14T12:02:44.054Z,100141.81
2023-05-14T12:05:13.625Z,100152.47
2023-05-14T12:07:40.646Z,100142.00
2023-05-14T12:10:08.122Z,100149.50
2023-05-14T12:12:39.904Z,100142.69
2023-05-14T12:15:14.128Z,100130.31
2023-05-14T12:17:41.282Z,100141.81
2023-05-14T12:20:12.495Z,100142.00
2023-05-14T12:22:41.653Z,100138.41
2023-05-14T12:25:15.673Z,100139.03
2023-05-14T12:27:45.306Z,100136.38
2023-05-14T12:30:20.767Z,100132.59
2023-05-14T12:32:51.899Z,100143.81
2023-05-14T12:35:19.052Z,100136.38
2023-05-14T12:37:46.054Z,100126.72
2023-05-14T12:40:13.254Z,100118.91
2023-05-14T12:42:40.094Z,100129.13
2023-05-14T12:45:08.720Z,100117.84
2023-05-14T12:47:36.458Z,100110.28
2023-05-14T12:50:03.767Z,100106.81
2023-05-14T12:52:37.842Z,100098.81
2023-05-14T12:55:09.960Z,100103.72
2023-05-14T12:57:39.059Z,100101.34
2023-05-14T13:00:08.494Z,100094.63
2023-05-14T13:02:42.932Z,100091.59
2023-05-14T13:05:13.747Z,100083.59
2023-05-14T13:07:41.080Z,100085.72
2023-05-14T13:10:08.548Z,100067.72
2023-05-14T13:12:35.523Z,100073.97
2023-05-14T13:15:02.253Z,100072.41
2023-05-14T13:17:29.178Z,100071.91
2023-05-14T13:19:56.160Z,100079.28
2023-05-14T13:22:22.971Z,100082.59
2023-05-14T13:24:49.669Z,100065.22
2023-05-14T13:27:16.432Z,100065.69
2023-05-14T13:29:43.140Z,100059.06
2023-05-14T13:32:10.047Z,100063.78
2023-05-14T13:34:36.879Z,100072.22
2023-05-14T13:37:04.110Z,100072.13
2023-05-14T13:39:30.921Z,100066.44
2023-05-14T13:41:58.144Z,100067.16
2023-05-14T13:44:24.985Z,100050.16
2023-05-14T13:46:51.922Z,100049.59
2023-05-14T13:49:19.103Z,100054.66
2023-05-14T13:51:46.057Z,100062.28
2023-05-14T13:54:12.798Z,100058.34
2023-05-14T13:56:39.564Z,100055.84
2023-05-14T13:59:06.432Z,100061.44
2023-05-14T14:01:33.418Z,100063.00
2023-05-14T14:04:00.518Z,100056.56
2023-05-14T14:06:29.974Z,100060.16
2023-05-14T14:08:56.653Z,100064.84
2023-05-14T14:11:23.484Z,100056.13
2023-05-14T14:13:50.275Z,100055.19
2023-05-14T14:16:17.129Z,100037.56
2023-05-14T14:18:44.105Z,100049.03
2023-05-14T14:21:11.232Z,100043.69
2023-05-14T14:23:37.919Z,100033.03
2023-05-14T14:26:04.656Z,100024.66
2023-05-14T14:28:34.444Z,100029.19
2023-05-14T14:31:01.167Z,100040.94
2023-05-14T14:33:27.968Z,100040.84
2023-05-14T14:35:54.750Z,100032.31
2023-05-14T14:38:21.438Z,100035.63
2023-05-14T14:40:48.163Z,100031.38
2023-05-14T14:43:14.897Z,100026.53
2023-05-14T14:45:42.879Z,100028.53
2023-05-14T14:48:25.161Z,100031.09
2023-05-14T14:50:52.860Z,100021.19
2023-05-14T14:53:20.709Z,100018.81
2023-05-14T14:55:48.714Z,100014.09
2023-05-14T14:58:15.473Z,100007.78
2023-05-14T15:00:42.405Z,100006.28
2023-05-14T15:03:12.019Z,100000.34
2023-05-14T15:05:39.053Z,99996.25
2023-05-14T15:08:05.823Z,100005.91
2023-05-14T15:10:33.029Z,99999.31
2023-05-14T15:13:00.080Z,100002.16
2023-05-14T15:15:26.811Z,100005.47
2023-05-14T15:17:53.605Z,100000.16
2023-05-14T15:20:20.398Z,99996.19
2023-05-14T15:22:47.275Z,99994.34
2023-05-14T15:25:13.998Z,99994.81
2023-05-14T15:27:40.871Z,99989.66
2023-05-14T15:30:08.130Z,99999.13
2023-05-14T15:32:34.983Z,99999.50
2023-05-14T15:35:01.986Z,100011.34
2023-05-14T15:37:35.890Z,100001.34
2023-05-14T15:40:03.226Z,100003.16
2023-05-14T15:42:30.712Z,100001.44
2023-05-14T15:44:57.641Z,99995.91
2023-05-14T15:47:24.377Z,99986.00
2023-05-14T15:49:51.332Z,99974.59
2023-05-14T15:52:18.174Z,99969.63
2023-05-14T15:54:48.673Z,99973.09
2023-05-14T15:57:16.960Z,99971.28
2023-05-14T15:59:45.470Z,99975.06
2023-05-14T16:02:12.908Z,99976.69
2023-05-14T16:04:39.582Z,99971.44
2023-05-14T16:07:09.919Z,99978.81
2023-05-14T16:09:37.060Z,99971.09
2023-05-14T16:12:05.100Z,99962.16
2023-05-14T16:14:33.865Z,99976.78
2023-05-14T16:17:01.894Z,99968.63
2023-05-14T16:19:28.787Z,99970.72
2023-05-14T16:21:55.568Z,99963.19
2023-05-14T16:24:22.420Z,99952.91
2023-05-14T16:26:49.158Z,99956.13
2023-05-14T16:29:16.035Z,99945.44
2023-05-14T16:31:42.823Z,99943.34
2023-05-14T16:34:09.586Z,99941.13
2023-05-14T16:36:36.323Z,99942.88
2023-05-14T16:39:07.490Z,99940.59
2023-05-14T16:41:35.554Z,99952.44
2023-05-14T16:44:02.533Z,99930.13
2023-05-14T16:46:29.596Z,99925.59
2023-05-14T16:48:56.617Z,99921.47
2023-05-14T16:51:23.388Z,99941.31
2023-05-14T16:53:51.266Z,99941.31
2023-05-14T16:56:18.639Z,99928.66
2023-05-14T16:58:45.375Z,99922.84
2023-05-14T17:01:12.241Z,99919.56
2023-05-14T17:03:38.958Z,99926.34
2023-05-14T17:06:06.034Z,99928.38
2023-05-14T17:08:33.732Z,99937.34
2023-05-14T17:11:00.635Z,99929.75
2023-05-14T17:13:27.476Z,99919.56
2023-05-14T17:15:54.286Z,99913.38
2023-05-14T17:18:20.953Z,99893.00
2023-05-14T17:20:47.668Z,99897.31
2023-05-14T17:23:14.611Z,99886.66
2023-05-14T17:25:41.428Z,99900.44
2023-05-14T17:28:08.442Z,99898.03
2023-05-14T17:30:35.175Z,99908.81
2023-05-14T17:33:02.040Z,99905.84
2023-05-14T17:35:28.841Z,99915.31
2023-05-14T17:37:55.792Z,99915.13
2023-05-14T17:40:22.580Z,99912.47
2023-05-14T17:42:49.424Z,99911.84
2023-05-14T17:45:20.637Z,99913.19
2023-05-14T17:47:49.134Z,99915.19
2023-05-14T17:50:15.873Z,99926.16
2023-05-14T17:52:44.282Z,99936.44
2023-05-14T17:55:11.192Z,99938.66
2023-05-14T17:57:38.034Z,99935.63
2023-05-14T18:00:05.287Z,99927.63
2023-05-14T18:02:37.551Z,99937.72
2023-05-14T18:05:04.629Z,99915.69
2023-05-14T18:07:31.400Z,99918.44
2023-05-14T18:09:58.387Z,99901.38
2023-05-14T18:12:28.768Z,99903.47
2023-05-14T18:14:55.794Z,99898.78
2023-05-14T18:17:22.658Z,99894.47
2023-05-14T18:19:49.497Z,99888.78
2023-05-14T18:22:16.236Z,99895.66
2023-05-14T18:24:44.351Z,99905.56
2023-05-14T18:27:11.465Z,99899.06
2023-05-14T18:29:38.431Z,99882.16
2023-05-14T18:32:05.585Z,99881.41
2023-05-14T18:34:32.262Z,99877.47
2023-05-14T18:36:59.129Z,99874.63
2023-05-14T18:39:25.846Z,99873.06
2023-05-14T18:41:52.943Z,99882.06
2023-05-14T18:44:19.662Z,99880.59
2023-05-14T18:46:46.456Z,99900.53
2023-05-14T18:49:13.185Z,99908.91
2023-05-14T18:51:39.958Z,99919.19
2023-05-14T18:54:06.815Z,99906.13
2023-05-14T18:56:34.905Z,99914.41
2023-05-14T18:59:01.712Z,99916.69
2023-05-14T19:01:28.576Z,99900.34
2023-05-14T19:03:56.195Z,99879.84
2023-05-14T19:06:23.235Z,99876.53
2023-05-14T19:08:50.275Z,99868.56
2023-05-14T19:11:18.163Z,99867.78
2023-05-14T19:13:49.659Z,99871.59
2023-05-14T19:16:16.596Z,99873.06
2023-05-14T19:18:43.677Z,99883.72
2023-05-14T19:21:10.464Z,99882.44
2023-05-14T19:23:37.301Z,99884.34
2023-05-14T19:26:04.159Z,99869.84
2023-05-14T19:28:31.006Z,99869.84
2023-05-14T19:30:57.811Z,99885.63
2023-05-14T19:33:25.986Z,99885.00
2023-05-14T19:35:52.882Z,99894.28
2023-05-14T19:38:19.785Z,99902.44
2023-05-14T19:40:46.742Z,99910.91
2023-05-14T19:43:13.637Z,99897.09
2023-05-14T19:45:42.671Z,99910.91
2023-05-14T19:48:09.580Z,99925.50
2023-05-14T19:50:37.148Z,99918.72
2023-05-14T19:53:04.590Z,99906.56
2023-05-14T19:55:31.414Z,99897.97
2023-05-14T19:57:58.168Z,99911.72
2023-05-14T20:00:25.104Z,99922.19
2023-05-14T20:02:52.127Z,99928.19
2023-05-14T20:05:19.086Z,99925.50
2023-05-14T20:07:48.954Z,99946.47
2023-05-14T20:10:15.685Z,99937.47
2023-05-14T20:12:42.491Z,99934.13
2023-05-14T20:15:09.801Z,99943.78
2023-05-14T20:17:38.196Z,99939.66
2023-05-14T20:20:06.920Z,99938.66
2023-05-14T20:22:33.635Z,99914.84
2023-05-14T20:25:00.432Z,99890.88
2023-05-14T20:27:27.210Z,99877.34
2023-05-14T20:29:54.350Z,99860.09
2023-05-14T20:32:25.091Z,99851.47
2023-05-14T20:34:52.060Z,99858.41
2023-05-14T20:37:19.860Z,99843.47
2023-05-14T20:39:46.934Z,99852.28
2023-05-14T20:42:13.778Z,99860.28
2023-05-14T20:44:40.487Z,99869.72
2023-05-14T20:47:07.376Z,99884.06
2023-05-14T20:49:34.099Z,99874.88
2023-05-14T20:52:00.749Z,99868.72
2023-05-14T20:54:27.547Z,99870.56
2023-05-14T20:56:54.197Z,99858.06
2023-05-14T20:59:20.944Z,99836.66
2023-05-14T21:01:47.832Z,99832.53
2023-05-14T21:04:15.269Z,99847.94
2023-05-14T21:06:42.292Z,99848.41
2023-05-14T21:09:09.042Z,99841.88
2023-05-14T21:11:35.784Z,99823.59
2023-05-14T21:14:02.590Z,99816.63
2023-05-14T21:16:30.630Z,99804.31
2023-05-14T21:18:57.434Z,99811.41
2023-05-14T21:21:24.384Z,99810.75
2023-05-14T21:23:51.071Z,99826.00
2023-05-14T21:26:17.859Z,99842.00
2023-05-14T21:28:44.592Z,99854.13
2023-05-14T21:31:11.379Z,99849.81
2023-05-14T21:33:38.208Z,99836.66
2023-05-14T21:36:05.288Z,99827.97
2023-05-14T21:38:32.600Z,99842.19
2023-05-14T21:40:59.720Z,99845.28
2023-05-14T21:43:26.992Z,99819.03
2023-05-14T21:45:53.981Z,99813.69
2023-05-14T21:48:21.753Z,99816.53
2023-05-14T21:50:48.657Z,99826.81
2023-05-14T21:53:15.513Z,99833.81
2023-05-14T21:55:42.444Z,99832.34
2023-05-14T21:58:09.492Z,99833.00
2023-05-14T22:00:36.183Z,99834.81
2023-05-14T22:03:03.169Z,99830.34
2023-05-14T22:05:29.912Z,99825.00
2023-05-14T22:07:56.969Z,99811.84
2023-05-14T22:10:23.830Z,99818.00
2023-05-14T22:12:50.700Z,99818.81
2023-05-14T22:15:17.451Z,99803.22
2023-05-14T22:17:44.269Z,99797.50
2023-05-14T22:20:11.377Z,99790.72
2023-05-14T22:22:38.555Z,99788.69
2023-05-14T22:25:05.759Z,99787.84
2023-05-14T22:27:32.514Z,99785.13
2023-05-14T22:29:59.475Z,99788.03
2023-05-14T22:32:26.641Z,99790.91
2023-05-14T22:34:53.507Z,99790.47
2023-05-14T22:37:20.310Z,99794.03
2023-05-14T22:39:47.084Z,99793.38
2023-05-14T22:42:14.141Z,99786.84
2023-05-14T22:44:40.934Z,99789.72
2023-05-14T22:47:07.803Z,99795.50
2023-05-14T22:49:34.649Z,99807.34
2023-05-14T22:52:01.461Z,99797.69
2023-05-14T22:54:28.303Z,99814.06
2023-05-14T22:56:55.127Z,99834.19
2023-05-14T22:59:23.606Z,99831.44
2023-05-14T23:01:50.850Z,99837.66
2023-05-14T23:04:17.680Z,99801.13
2023-05-14T23:06:44.654Z,99805.88
2023-05-14T23:09:11.416Z,99813.69
2023-05-14T23:11:38.218Z,99808.56
2023-05-14T23:14:05.029Z,99818.81
2023-05-14T23:16:31.978Z,99821.22
2023-05-14T23:18:59.044Z,99824.34
2023-05-14T23:21:26.063Z,99837.88
2023-05-14T23:23:52.867Z,99836.19
2023-05-14T23:26:19.613Z,99846.22
2023-05-14T23:28:47.496Z,99839.72
2023-05-14T23:31:14.298Z,99832.72
2023-05-14T23:33:41.143Z,99821.41
2023-05-14T23:36:08.531Z,99803.06
2023-05-14T23:38:35.504Z,99814.78
2023-05-14T23:41:02.397Z,99808.66
2023-05-14T23:43:29.180Z,99807.47
2023-05-14T23:45:56.226Z,99809.31
2023-05-14T23:48:23.183Z,99802.50
2023-05-14T23:50:50.028Z,99800.47
2023-05-14T23:53:17.382Z,99792.47
2023-05-14T23:55:44.288Z,99799.84
2023-05-14T23:58:11.090Z,99790.56
